Whalan, Minnesota
Current Conditions -  °F | °C
As of 6:55 AM on Friday 24 Oct 2014 (Local Time) from KFKA Reporting Station
Moderate Fog Moderate Fog  
Wind Chill: 42°   Ceiling: 200
Heat Index: 46°   Visibility: 0.25mi
Dew Point: 46°   Wind: 9mph
Humidity: 97%   Direction: 160°SSE
Pressure: 29.98"   Gusts: NA
Location:  43.7165°N, 91.9871°W
Report Text: KFKA 241155Z AUTO 16008KT 1/4SM FG OVC002 08/08 A2998 RMK AO2 70009 T00800076 10093 20080
Loading
Personal Weather Stations






























Interactive Weather Map
Tropical Storm Tracking
New forecast layout! Learn more

10-Day Weather Forecast

Advertisements
Track Severe Weather on mobile